sensor_id;sensor_type;location;lat;lon;timestamp;P1;durP1;ratioP1;P2;durP2;ratioP2
62268;SDS011;56517;51.634;5.566;2022-11-23T00:00:18;17.75;;;9.60;;
62268;SDS011;56517;51.634;5.566;2022-11-23T00:05:18;19.33;;;7.88;;
62268;SDS011;56517;51.634;5.566;2022-11-23T00:10:19;14.80;;;7.32;;
62268;SDS011;56517;51.634;5.566;2022-11-23T00:15:19;23.52;;;9.23;;
62268;SDS011;56517;51.634;5.566;2022-11-23T00:20:20;10.38;;;7.15;;
62268;SDS011;56517;51.634;5.566;2022-11-23T00:25:20;12.60;;;7.63;;
62268;SDS011;56517;51.634;5.566;2022-11-23T00:30:24;16.02;;;7.55;;
62268;SDS011;56517;51.634;5.566;2022-11-23T00:35:24;18.55;;;8.10;;
62268;SDS011;56517;51.634;5.566;2022-11-23T00:40:25;15.00;;;7.78;;
62268;SDS011;56517;51.634;5.566;2022-11-23T00:45:25;17.00;;;8.68;;
62268;SDS011;56517;51.634;5.566;2022-11-23T00:50:26;16.52;;;7.63;;
62268;SDS011;56517;51.634;5.566;2022-11-23T00:55:27;14.95;;;7.13;;
62268;SDS011;56517;51.634;5.566;2022-11-23T01:00:27;18.67;;;7.38;;
62268;SDS011;56517;51.634;5.566;2022-11-23T01:05:28;10.73;;;6.32;;
62268;SDS011;56517;51.634;5.566;2022-11-23T01:10:28;16.92;;;7.32;;
62268;SDS011;56517;51.634;5.566;2022-11-23T01:15:29;15.35;;;7.38;;
62268;SDS011;56517;51.634;5.566;2022-11-23T01:20:29;16.58;;;6.68;;
62268;SDS011;56517;51.634;5.566;2022-11-23T01:25:30;14.50;;;7.43;;
62268;SDS011;56517;51.634;5.566;2022-11-23T01:30:31;9.77;;;6.30;;
62268;SDS011;56517;51.634;5.566;2022-11-23T01:35:31;12.93;;;6.28;;
62268;SDS011;56517;51.634;5.566;2022-11-23T01:40:38;11.23;;;6.55;;
62268;SDS011;56517;51.634;5.566;2022-11-23T01:45:40;15.48;;;6.78;;
62268;SDS011;56517;51.634;5.566;2022-11-23T01:50:42;16.80;;;7.55;;
62268;SDS011;56517;51.634;5.566;2022-11-23T01:55:45;16.15;;;7.20;;
62268;SDS011;56517;51.634;5.566;2022-11-23T02:00:45;13.32;;;7.00;;
62268;SDS011;56517;51.634;5.566;2022-11-23T02:05:47;14.57;;;7.13;;
62268;SDS011;56517;51.634;5.566;2022-11-23T02:10:48;15.23;;;6.60;;
62268;SDS011;56517;51.634;5.566;2022-11-23T02:15:49;13.27;;;6.03;;
62268;SDS011;56517;51.634;5.566;2022-11-23T02:20:50;13.85;;;7.43;;
62268;SDS011;56517;51.634;5.566;2022-11-23T02:26:01;16.38;;;6.63;;
62268;SDS011;56517;51.634;5.566;2022-11-23T02:31:03;14.45;;;6.18;;
62268;SDS011;56517;51.634;5.566;2022-11-23T02:36:20;19.10;;;6.78;;
62268;SDS011;56517;51.634;5.566;2022-11-23T02:41:33;11.70;;;6.72;;
62268;SDS011;56517;51.634;5.566;2022-11-23T02:46:37;17.17;;;7.88;;
62268;SDS011;56517;51.634;5.566;2022-11-23T02:51:39;10.80;;;6.00;;
62268;SDS011;56517;51.634;5.566;2022-11-23T02:56:40;10.98;;;6.05;;
62268;SDS011;56517;51.634;5.566;2022-11-23T03:01:40;15.80;;;7.47;;
62268;SDS011;56517;51.634;5.566;2022-11-23T03:06:41;10.38;;;5.97;;
62268;SDS011;56517;51.634;5.566;2022-11-23T03:11:42;11.55;;;5.72;;
62268;SDS011;56517;51.634;5.566;2022-11-23T03:16:42;14.60;;;6.55;;
62268;SDS011;56517;51.634;5.566;2022-11-23T03:21:43;20.85;;;6.60;;
62268;SDS011;56517;51.634;5.566;2022-11-23T03:26:43;15.40;;;6.00;;
62268;SDS011;56517;51.634;5.566;2022-11-23T03:31:44;16.67;;;6.05;;
62268;SDS011;56517;51.634;5.566;2022-11-23T03:36:44;16.65;;;7.22;;
62268;SDS011;56517;51.634;5.566;2022-11-23T03:41:45;21.02;;;7.30;;
62268;SDS011;56517;51.634;5.566;2022-11-23T03:46:45;20.25;;;8.23;;
62268;SDS011;56517;51.634;5.566;2022-11-23T03:51:46;16.55;;;6.55;;
62268;SDS011;56517;51.634;5.566;2022-11-23T03:56:46;14.43;;;6.43;;
62268;SDS011;56517;51.634;5.566;2022-11-23T04:01:47;13.88;;;6.25;;
62268;SDS011;56517;51.634;5.566;2022-11-23T04:06:47;12.90;;;6.53;;
62268;SDS011;56517;51.634;5.566;2022-11-23T04:11:48;18.67;;;6.75;;
62268;SDS011;56517;51.634;5.566;2022-11-23T04:16:49;20.17;;;6.93;;
62268;SDS011;56517;51.634;5.566;2022-11-23T04:21:49;15.80;;;6.35;;
62268;SDS011;56517;51.634;5.566;2022-11-23T04:26:50;13.60;;;6.55;;
62268;SDS011;56517;51.634;5.566;2022-11-23T04:31:50;16.13;;;6.80;;
62268;SDS011;56517;51.634;5.566;2022-11-23T04:36:51;11.98;;;6.13;;
62268;SDS011;56517;51.634;5.566;2022-11-23T04:41:51;12.40;;;5.85;;
62268;SDS011;56517;51.634;5.566;2022-11-23T04:46:52;15.98;;;6.10;;
62268;SDS011;56517;51.634;5.566;2022-11-23T04:51:52;14.02;;;6.32;;
62268;SDS011;56517;51.634;5.566;2022-11-23T04:56:53;15.98;;;5.93;;
62268;SDS011;56517;51.634;5.566;2022-11-23T05:01:53;13.60;;;6.07;;
62268;SDS011;56517;51.634;5.566;2022-11-23T05:06:54;14.00;;;7.15;;
62268;SDS011;56517;51.634;5.566;2022-11-23T05:11:55;13.93;;;6.30;;
62268;SDS011;56517;51.634;5.566;2022-11-23T05:16:55;16.38;;;6.63;;
62268;SDS011;56517;51.634;5.566;2022-11-23T05:21:56;15.90;;;5.93;;
62268;SDS011;56517;51.634;5.566;2022-11-23T05:26:56;15.57;;;6.25;;
62268;SDS011;56517;51.634;5.566;2022-11-23T05:31:57;15.07;;;7.40;;
62268;SDS011;56517;51.634;5.566;2022-11-23T05:36:57;15.85;;;6.63;;
62268;SDS011;56517;51.634;5.566;2022-11-23T05:41:58;21.25;;;6.55;;
62268;SDS011;56517;51.634;5.566;2022-11-23T05:47:07;26.92;;;8.07;;
62268;SDS011;56517;51.634;5.566;2022-11-23T05:52:08;15.70;;;6.07;;
62268;SDS011;56517;51.634;5.566;2022-11-23T05:57:08;13.52;;;5.70;;
62268;SDS011;56517;51.634;5.566;2022-11-23T06:02:09;21.98;;;7.25;;
62268;SDS011;56517;51.634;5.566;2022-11-23T06:07:09;18.00;;;6.15;;
62268;SDS011;56517;51.634;5.566;2022-11-23T06:12:10;20.65;;;8.35;;
62268;SDS011;56517;51.634;5.566;2022-11-23T06:17:10;34.97;;;10.38;;
62268;SDS011;56517;51.634;5.566;2022-11-23T06:22:11;24.30;;;8.88;;
62268;SDS011;56517;51.634;5.566;2022-11-23T06:27:12;21.35;;;7.90;;
62268;SDS011;56517;51.634;5.566;2022-11-23T06:32:13;17.30;;;7.72;;
62268;SDS011;56517;51.634;5.566;2022-11-23T06:37:14;17.15;;;7.72;;
62268;SDS011;56517;51.634;5.566;2022-11-23T06:42:14;19.80;;;7.07;;
62268;SDS011;56517;51.634;5.566;2022-11-23T06:47:15;18.00;;;7.18;;
62268;SDS011;56517;51.634;5.566;2022-11-23T06:52:15;20.90;;;6.18;;
62268;SDS011;56517;51.634;5.566;2022-11-23T06:57:16;22.65;;;7.45;;
62268;SDS011;56517;51.634;5.566;2022-11-23T07:02:16;22.98;;;7.30;;
62268;SDS011;56517;51.634;5.566;2022-11-23T07:07:18;18.33;;;6.32;;
62268;SDS011;56517;51.634;5.566;2022-11-23T07:12:18;19.58;;;6.95;;
62268;SDS011;56517;51.634;5.566;2022-11-23T07:17:19;15.23;;;5.50;;
62268;SDS011;56517;51.634;5.566;2022-11-23T07:22:19;14.80;;;6.28;;
62268;SDS011;56517;51.634;5.566;2022-11-23T07:27:20;16.50;;;6.80;;
62268;SDS011;56517;51.634;5.566;2022-11-23T07:32:21;15.45;;;6.25;;
62268;SDS011;56517;51.634;5.566;2022-11-23T07:37:21;11.50;;;6.20;;
62268;SDS011;56517;51.634;5.566;2022-11-23T07:42:22;19.13;;;6.88;;
62268;SDS011;56517;51.634;5.566;2022-11-23T07:47:22;17.95;;;7.35;;
62268;SDS011;56517;51.634;5.566;2022-11-23T07:52:23;13.68;;;6.15;;
62268;SDS011;56517;51.634;5.566;2022-11-23T07:57:23;16.45;;;6.25;;
62268;SDS011;56517;51.634;5.566;2022-11-23T08:02:24;17.50;;;6.38;;
62268;SDS011;56517;51.634;5.566;2022-11-23T08:07:24;19.25;;;5.72;;
62268;SDS011;56517;51.634;5.566;2022-11-23T08:12:25;13.48;;;6.22;;
62268;SDS011;56517;51.634;5.566;2022-11-23T08:17:26;16.52;;;6.18;;
62268;SDS011;56517;51.634;5.566;2022-11-23T08:22:32;14.70;;;6.70;;
62268;SDS011;56517;51.634;5.566;2022-11-23T08:27:43;10.85;;;6.20;;
62268;SDS011;56517;51.634;5.566;2022-11-23T08:32:43;20.20;;;6.57;;
62268;SDS011;56517;51.634;5.566;2022-11-23T08:37:44;20.20;;;5.93;;
62268;SDS011;56517;51.634;5.566;2022-11-23T08:42:48;12.13;;;5.53;;
62268;SDS011;56517;51.634;5.566;2022-11-23T08:47:49;20.40;;;6.40;;
62268;SDS011;56517;51.634;5.566;2022-11-23T08:52:53;24.67;;;6.97;;
62268;SDS011;56517;51.634;5.566;2022-11-23T08:57:54;16.25;;;6.40;;
62268;SDS011;56517;51.634;5.566;2022-11-23T09:02:55;18.17;;;5.88;;
62268;SDS011;56517;51.634;5.566;2022-11-23T09:07:59;16.58;;;6.93;;
62268;SDS011;56517;51.634;5.566;2022-11-23T09:13:00;12.35;;;5.78;;
62268;SDS011;56517;51.634;5.566;2022-11-23T09:18:01;17.42;;;6.13;;
62268;SDS011;56517;51.634;5.566;2022-11-23T09:23:01;18.05;;;6.35;;
62268;SDS011;56517;51.634;5.566;2022-11-23T09:28:02;19.60;;;6.53;;
62268;SDS011;56517;51.634;5.566;2022-11-23T09:38:42;17.60;;;5.70;;
62268;SDS011;56517;51.634;5.566;2022-11-23T09:49:09;14.68;;;5.43;;
62268;SDS011;56517;51.634;5.566;2022-11-23T09:54:31;16.15;;;5.00;;
62268;SDS011;56517;51.634;5.566;2022-11-23T09:59:42;13.32;;;4.53;;
62268;SDS011;56517;51.634;5.566;2022-11-23T10:05:15;14.13;;;4.20;;
62268;SDS011;56517;51.634;5.566;2022-11-23T10:32:02;19.38;;;6.20;;
62268;SDS011;56517;51.634;5.566;2022-11-23T10:37:13;11.73;;;4.93;;
62268;SDS011;56517;51.634;5.566;2022-11-23T10:42:28;10.13;;;4.72;;
62268;SDS011;56517;51.634;5.566;2022-11-23T11:03:37;10.13;;;4.60;;
62268;SDS011;56517;51.634;5.566;2022-11-23T11:08:48;10.68;;;4.07;;
62268;SDS011;56517;51.634;5.566;2022-11-23T11:19:45;16.05;;;5.13;;
62268;SDS011;56517;51.634;5.566;2022-11-23T11:25:37;13.90;;;4.75;;
62268;SDS011;56517;51.634;5.566;2022-11-23T11:59:13;14.13;;;4.63;;
62268;SDS011;56517;51.634;5.566;2022-11-23T12:09:41;11.52;;;4.65;;
62268;SDS011;56517;51.634;5.566;2022-11-23T13:44:43;11.55;;;4.85;;
62268;SDS011;56517;51.634;5.566;2022-11-23T16:36:06;10.15;;;5.45;;
62268;SDS011;56517;51.634;5.566;2022-11-23T16:41:14;9.38;;;6.13;;
62268;SDS011;56517;51.634;5.566;2022-11-23T16:52:10;10.93;;;6.28;;
62268;SDS011;56517;51.634;5.566;2022-11-23T16:57:54;10.32;;;6.35;;
62268;SDS011;56517;51.634;5.566;2022-11-23T21:03:27;21.45;;;7.70;;
62268;SDS011;56517;51.634;5.566;2022-11-23T21:08:27;21.60;;;8.25;;
62268;SDS011;56517;51.634;5.566;2022-11-23T21:13:28;16.00;;;7.82;;
62268;SDS011;56517;51.634;5.566;2022-11-23T21:18:32;17.77;;;8.82;;
62268;SDS011;56517;51.634;5.566;2022-11-23T21:23:33;22.02;;;8.23;;
62268;SDS011;56517;51.634;5.566;2022-11-23T21:33:44;31.48;;;9.60;;
62268;SDS011;56517;51.634;5.566;2022-11-23T21:38:45;19.88;;;8.02;;
62268;SDS011;56517;51.634;5.566;2022-11-23T21:43:46;25.23;;;8.07;;
62268;SDS011;56517;51.634;5.566;2022-11-23T21:48:55;25.95;;;9.60;;
62268;SDS011;56517;51.634;5.566;2022-11-23T21:53:57;27.15;;;8.30;;
62268;SDS011;56517;51.634;5.566;2022-11-23T21:58:57;21.48;;;8.68;;
62268;SDS011;56517;51.634;5.566;2022-11-23T22:04:02;24.00;;;8.48;;
62268;SDS011;56517;51.634;5.566;2022-11-23T22:09:03;15.15;;;7.93;;
62268;SDS011;56517;51.634;5.566;2022-11-23T22:14:05;19.67;;;8.63;;
62268;SDS011;56517;51.634;5.566;2022-11-23T22:19:12;25.77;;;7.80;;
62268;SDS011;56517;51.634;5.566;2022-11-23T22:24:16;23.10;;;8.10;;
62268;SDS011;56517;51.634;5.566;2022-11-23T22:29:19;22.10;;;8.38;;
62268;SDS011;56517;51.634;5.566;2022-11-23T22:34:19;29.13;;;8.57;;
62268;SDS011;56517;51.634;5.566;2022-11-23T22:39:27;28.50;;;9.38;;
62268;SDS011;56517;51.634;5.566;2022-11-23T22:44:28;20.98;;;7.85;;
62268;SDS011;56517;51.634;5.566;2022-11-23T22:49:28;30.70;;;8.73;;
62268;SDS011;56517;51.634;5.566;2022-11-23T22:54:29;19.88;;;6.63;;
62268;SDS011;56517;51.634;5.566;2022-11-23T22:59:30;23.75;;;7.38;;
62268;SDS011;56517;51.634;5.566;2022-11-23T23:04:30;33.58;;;8.00;;
62268;SDS011;56517;51.634;5.566;2022-11-23T23:09:31;26.08;;;8.20;;
62268;SDS011;56517;51.634;5.566;2022-11-23T23:14:31;15.65;;;7.18;;
62268;SDS011;56517;51.634;5.566;2022-11-23T23:19:32;22.83;;;7.72;;
62268;SDS011;56517;51.634;5.566;2022-11-23T23:24:33;22.92;;;7.00;;
62268;SDS011;56517;51.634;5.566;2022-11-23T23:29:33;21.25;;;6.88;;
62268;SDS011;56517;51.634;5.566;2022-11-23T23:34:34;24.38;;;6.82;;
62268;SDS011;56517;51.634;5.566;2022-11-23T23:39:34;18.65;;;6.47;;
62268;SDS011;56517;51.634;5.566;2022-11-23T23:44:35;25.92;;;7.70;;
62268;SDS011;56517;51.634;5.566;2022-11-23T23:49:35;23.25;;;6.72;;
62268;SDS011;56517;51.634;5.566;2022-11-23T23:54:36;18.55;;;7.28;;
62268;SDS011;56517;51.634;5.566;2022-11-23T23:59:37;19.85;;;6.68;;
